Cadley, Georgia
Current Conditions -  °F | °C
As of 1:15 AM on Sunday 23 Nov 2014 (Local Time) from KHQU Reporting Station
Overcast Overcast  
Wind Chill: 46°   Ceiling: 3200
Heat Index: 48°   Visibility: 1.7mi
Dew Point: 48°   Wind: 5mph
Humidity: 100%   Direction: 60°ENE
Pressure: 30.26"   Gusts: NA
Location:  33.4918°N, 82.7343°W
Report Text: KHQU 230615Z AUTO 06004KT 1 3/4SM SCT024 BKN032 OVC055 09/09 A3026 RMK AO1 T00900090
Loading
Personal Weather Stations






























Interactive Weather Map New forecast layout! Learn more

10-Day Weather Forecast

Advertisements
Track Severe Weather on mobile